Aviation Digital Data Service (ADDS)

Output produced by METARs form (0502 UTC 21 September 2017)
found at http://www.aviationweather.gov/adds/metars/
 
FWCL 210400Z 00000KT 3000 HZ NSC 19/18 Q1023 NOSIG
TAF FWCL 210430Z 2106/2212 20006KT 3000 HZ SCT025 
     BECMG 2114/2118 21007KT CAVOK 
     FM220400 VRB02KT 4000 HZ NSC 
     BECMG 2206/2210 22006KT 3000 HZ SCT030